sensor_id;sensor_type;location;lat;lon;timestamp;P1;durP1;ratioP1;P2;durP2;ratioP2
20230;SDS011;10274;49.022;9.338;2023-11-18T00:01:04;0.77;;;0.77;;
20230;SDS011;10274;49.022;9.338;2023-11-18T00:03:30;1.17;;;1.07;;
20230;SDS011;10274;49.022;9.338;2023-11-18T00:05:57;0.70;;;0.70;;
20230;SDS011;10274;49.022;9.338;2023-11-18T00:08:24;1.10;;;1.00;;
20230;SDS011;10274;49.022;9.338;2023-11-18T00:10:51;0.87;;;0.87;;
20230;SDS011;10274;49.022;9.338;2023-11-18T00:13:20;1.27;;;1.17;;
20230;SDS011;10274;49.022;9.338;2023-11-18T00:18:14;1.23;;;0.77;;
20230;SDS011;10274;49.022;9.338;2023-11-18T00:20:41;0.83;;;0.83;;
20230;SDS011;10274;49.022;9.338;2023-11-18T00:23:09;0.87;;;0.87;;
20230;SDS011;10274;49.022;9.338;2023-11-18T00:25:35;1.20;;;1.10;;
20230;SDS011;10274;49.022;9.338;2023-11-18T00:28:04;1.13;;;1.03;;
20230;SDS011;10274;49.022;9.338;2023-11-18T00:30:33;1.13;;;1.13;;
20230;SDS011;10274;49.022;9.338;2023-11-18T00:33:00;1.30;;;1.20;;
20230;SDS011;10274;49.022;9.338;2023-11-18T00:35:26;1.27;;;1.10;;
20230;SDS011;10274;49.022;9.338;2023-11-18T00:37:56;0.60;;;0.60;;
20230;SDS011;10274;49.022;9.338;2023-11-18T00:40:23;1.10;;;1.00;;
20230;SDS011;10274;49.022;9.338;2023-11-18T00:42:50;1.00;;;1.00;;
20230;SDS011;10274;49.022;9.338;2023-11-18T00:45:17;0.90;;;0.83;;
20230;SDS011;10274;49.022;9.338;2023-11-18T00:47:45;1.07;;;1.03;;
20230;SDS011;10274;49.022;9.338;2023-11-18T00:50:11;1.13;;;1.03;;
20230;SDS011;10274;49.022;9.338;2023-11-18T00:52:38;1.60;;;1.50;;
20230;SDS011;10274;49.022;9.338;2023-11-18T00:55:07;1.27;;;1.13;;
20230;SDS011;10274;49.022;9.338;2023-11-18T00:57:35;1.20;;;1.07;;
20230;SDS011;10274;49.022;9.338;2023-11-18T01:00:04;1.57;;;1.47;;
20230;SDS011;10274;49.022;9.338;2023-11-18T01:02:32;1.60;;;1.50;;
20230;SDS011;10274;49.022;9.338;2023-11-18T01:05:00;1.20;;;1.10;;
20230;SDS011;10274;49.022;9.338;2023-11-18T01:07:26;1.40;;;1.30;;
20230;SDS011;10274;49.022;9.338;2023-11-18T01:09:53;1.10;;;1.00;;
20230;SDS011;10274;49.022;9.338;2023-11-18T01:12:20;2.00;;;1.50;;
20230;SDS011;10274;49.022;9.338;2023-11-18T01:14:46;1.30;;;1.20;;
20230;SDS011;10274;49.022;9.338;2023-11-18T01:17:13;1.47;;;1.30;;
20230;SDS011;10274;49.022;9.338;2023-11-18T01:19:39;1.37;;;1.27;;
20230;SDS011;10274;49.022;9.338;2023-11-18T01:22:07;1.17;;;0.93;;
20230;SDS011;10274;49.022;9.338;2023-11-18T01:24:36;1.43;;;1.33;;
20230;SDS011;10274;49.022;9.338;2023-11-18T01:27:03;1.40;;;1.30;;
20230;SDS011;10274;49.022;9.338;2023-11-18T01:29:30;1.40;;;1.30;;
20230;SDS011;10274;49.022;9.338;2023-11-18T01:31:58;1.60;;;1.50;;
20230;SDS011;10274;49.022;9.338;2023-11-18T01:34:25;1.70;;;1.60;;
20230;SDS011;10274;49.022;9.338;2023-11-18T01:36:53;1.53;;;1.27;;
20230;SDS011;10274;49.022;9.338;2023-11-18T01:39:21;1.50;;;1.40;;
20230;SDS011;10274;49.022;9.338;2023-11-18T01:41:47;1.57;;;1.30;;
20230;SDS011;10274;49.022;9.338;2023-11-18T01:44:14;1.67;;;1.47;;
20230;SDS011;10274;49.022;9.338;2023-11-18T01:46:42;1.07;;;1.07;;
20230;SDS011;10274;49.022;9.338;2023-11-18T01:49:10;1.20;;;1.10;;
20230;SDS011;10274;49.022;9.338;2023-11-18T01:51:38;1.40;;;1.30;;
20230;SDS011;10274;49.022;9.338;2023-11-18T01:54:06;1.17;;;1.07;;
20230;SDS011;10274;49.022;9.338;2023-11-18T01:56:38;2.00;;;1.40;;
20230;SDS011;10274;49.022;9.338;2023-11-18T01:59:05;1.50;;;1.40;;
20230;SDS011;10274;49.022;9.338;2023-11-18T02:01:35;1.43;;;1.33;;
20230;SDS011;10274;49.022;9.338;2023-11-18T02:04:03;1.60;;;1.30;;
20230;SDS011;10274;49.022;9.338;2023-11-18T02:06:32;2.37;;;1.73;;
20230;SDS011;10274;49.022;9.338;2023-11-18T02:08:59;1.97;;;1.50;;
20230;SDS011;10274;49.022;9.338;2023-11-18T02:11:28;1.60;;;1.50;;
20230;SDS011;10274;49.022;9.338;2023-11-18T02:14:00;1.87;;;1.70;;
20230;SDS011;10274;49.022;9.338;2023-11-18T02:16:29;2.17;;;2.03;;
20230;SDS011;10274;49.022;9.338;2023-11-18T02:18:56;1.67;;;1.43;;
20230;SDS011;10274;49.022;9.338;2023-11-18T02:21:24;2.03;;;1.53;;
20230;SDS011;10274;49.022;9.338;2023-11-18T02:23:51;2.53;;;1.97;;
20230;SDS011;10274;49.022;9.338;2023-11-18T02:26:23;2.00;;;1.70;;
20230;SDS011;10274;49.022;9.338;2023-11-18T02:28:50;1.73;;;1.63;;
20230;SDS011;10274;49.022;9.338;2023-11-18T02:31:20;1.80;;;1.63;;
20230;SDS011;10274;49.022;9.338;2023-11-18T02:33:54;2.03;;;1.67;;
20230;SDS011;10274;49.022;9.338;2023-11-18T02:36:29;2.47;;;1.70;;
20230;SDS011;10274;49.022;9.338;2023-11-18T02:39:01;2.50;;;1.70;;
20230;SDS011;10274;49.022;9.338;2023-11-18T02:41:34;1.63;;;1.53;;
20230;SDS011;10274;49.022;9.338;2023-11-18T02:44:02;1.60;;;1.50;;
20230;SDS011;10274;49.022;9.338;2023-11-18T02:46:33;1.70;;;1.60;;
20230;SDS011;10274;49.022;9.338;2023-11-18T02:49:00;2.03;;;1.83;;
20230;SDS011;10274;49.022;9.338;2023-11-18T02:51:27;2.00;;;1.70;;
20230;SDS011;10274;49.022;9.338;2023-11-18T02:53:54;1.83;;;1.67;;
20230;SDS011;10274;49.022;9.338;2023-11-18T02:56:21;1.90;;;1.67;;
20230;SDS011;10274;49.022;9.338;2023-11-18T02:58:49;1.70;;;1.60;;
20230;SDS011;10274;49.022;9.338;2023-11-18T03:01:16;1.70;;;1.60;;
20230;SDS011;10274;49.022;9.338;2023-11-18T03:03:44;1.47;;;1.37;;
20230;SDS011;10274;49.022;9.338;2023-11-18T03:06:11;1.80;;;1.27;;
20230;SDS011;10274;49.022;9.338;2023-11-18T03:08:37;1.40;;;1.30;;
20230;SDS011;10274;49.022;9.338;2023-11-18T03:11:06;1.70;;;1.60;;
20230;SDS011;10274;49.022;9.338;2023-11-18T03:13:34;1.73;;;1.60;;
20230;SDS011;10274;49.022;9.338;2023-11-18T03:16:05;1.73;;;1.40;;
20230;SDS011;10274;49.022;9.338;2023-11-18T03:18:36;2.40;;;2.07;;
20230;SDS011;10274;49.022;9.338;2023-11-18T03:21:04;1.50;;;1.40;;
20230;SDS011;10274;49.022;9.338;2023-11-18T03:23:32;1.30;;;1.20;;
20230;SDS011;10274;49.022;9.338;2023-11-18T03:25:59;1.77;;;1.60;;
20230;SDS011;10274;49.022;9.338;2023-11-18T03:28:25;1.87;;;1.73;;
20230;SDS011;10274;49.022;9.338;2023-11-18T03:30:52;1.83;;;1.70;;
20230;SDS011;10274;49.022;9.338;2023-11-18T03:33:20;1.60;;;1.50;;
20230;SDS011;10274;49.022;9.338;2023-11-18T03:35:47;2.30;;;1.77;;
20230;SDS011;10274;49.022;9.338;2023-11-18T03:38:14;1.97;;;1.77;;
20230;SDS011;10274;49.022;9.338;2023-11-18T03:40:42;2.17;;;1.40;;
20230;SDS011;10274;49.022;9.338;2023-11-18T03:43:10;2.37;;;1.83;;
20230;SDS011;10274;49.022;9.338;2023-11-18T03:45:38;1.60;;;1.50;;
20230;SDS011;10274;49.022;9.338;2023-11-18T03:48:04;1.73;;;1.50;;
20230;SDS011;10274;49.022;9.338;2023-11-18T03:50:32;1.97;;;1.80;;
20230;SDS011;10274;49.022;9.338;2023-11-18T03:52:59;2.00;;;1.90;;
20230;SDS011;10274;49.022;9.338;2023-11-18T03:55:28;2.33;;;1.57;;
20230;SDS011;10274;49.022;9.338;2023-11-18T03:57:55;1.83;;;1.57;;
20230;SDS011;10274;49.022;9.338;2023-11-18T04:00:22;2.10;;;1.63;;
20230;SDS011;10274;49.022;9.338;2023-11-18T04:02:54;2.40;;;1.80;;
20230;SDS011;10274;49.022;9.338;2023-11-18T04:05:21;2.60;;;1.80;;
20230;SDS011;10274;49.022;9.338;2023-11-18T04:07:49;1.83;;;1.67;;
20230;SDS011;10274;49.022;9.338;2023-11-18T04:10:16;1.93;;;1.73;;
20230;SDS011;10274;49.022;9.338;2023-11-18T04:12:44;1.63;;;1.53;;
20230;SDS011;10274;49.022;9.338;2023-11-18T04:15:12;1.80;;;1.43;;
20230;SDS011;10274;49.022;9.338;2023-11-18T04:17:39;1.47;;;1.37;;
20230;SDS011;10274;49.022;9.338;2023-11-18T04:20:06;1.10;;;1.00;;
20230;SDS011;10274;49.022;9.338;2023-11-18T04:22:37;2.17;;;1.97;;
20230;SDS011;10274;49.022;9.338;2023-11-18T04:25:06;1.37;;;1.27;;
20230;SDS011;10274;49.022;9.338;2023-11-18T04:27:33;1.47;;;1.37;;
20230;SDS011;10274;49.022;9.338;2023-11-18T04:30:00;1.90;;;1.80;;
20230;SDS011;10274;49.022;9.338;2023-11-18T04:32:27;1.43;;;1.33;;
20230;SDS011;10274;49.022;9.338;2023-11-18T04:34:57;1.90;;;1.80;;
20230;SDS011;10274;49.022;9.338;2023-11-18T04:37:23;1.77;;;1.40;;
20230;SDS011;10274;49.022;9.338;2023-11-18T04:39:51;1.70;;;1.50;;
20230;SDS011;10274;49.022;9.338;2023-11-18T04:42:20;1.90;;;1.80;;
20230;SDS011;10274;49.022;9.338;2023-11-18T04:44:47;1.40;;;1.30;;
20230;SDS011;10274;49.022;9.338;2023-11-18T04:47:13;2.00;;;1.40;;
20230;SDS011;10274;49.022;9.338;2023-11-18T04:49:41;1.30;;;1.20;;
20230;SDS011;10274;49.022;9.338;2023-11-18T04:52:08;1.47;;;1.10;;
20230;SDS011;10274;49.022;9.338;2023-11-18T04:54:35;1.40;;;1.27;;
20230;SDS011;10274;49.022;9.338;2023-11-18T04:57:01;1.53;;;1.43;;
20230;SDS011;10274;49.022;9.338;2023-11-18T04:59:30;1.33;;;1.23;;
20230;SDS011;10274;49.022;9.338;2023-11-18T05:01:56;1.33;;;1.20;;
20230;SDS011;10274;49.022;9.338;2023-11-18T05:04:23;1.40;;;1.30;;
20230;SDS011;10274;49.022;9.338;2023-11-18T05:06:50;1.57;;;1.37;;
20230;SDS011;10274;49.022;9.338;2023-11-18T05:09:17;1.23;;;1.13;;
20230;SDS011;10274;49.022;9.338;2023-11-18T05:11:44;1.00;;;0.87;;
20230;SDS011;10274;49.022;9.338;2023-11-18T05:14:11;1.23;;;1.13;;
20230;SDS011;10274;49.022;9.338;2023-11-18T05:16:39;1.40;;;1.30;;
20230;SDS011;10274;49.022;9.338;2023-11-18T05:19:06;1.77;;;1.50;;
20230;SDS011;10274;49.022;9.338;2023-11-18T05:21:33;1.63;;;1.37;;
20230;SDS011;10274;49.022;9.338;2023-11-18T05:24:00;0.80;;;0.80;;
20230;SDS011;10274;49.022;9.338;2023-11-18T05:26:27;1.53;;;1.43;;
20230;SDS011;10274;49.022;9.338;2023-11-18T05:28:54;1.67;;;1.43;;
20230;SDS011;10274;49.022;9.338;2023-11-18T05:31:21;1.53;;;1.27;;
20230;SDS011;10274;49.022;9.338;2023-11-18T05:33:49;1.10;;;0.93;;
20230;SDS011;10274;49.022;9.338;2023-11-18T05:36:20;0.83;;;0.80;;
20230;SDS011;10274;49.022;9.338;2023-11-18T05:38:52;1.20;;;1.10;;
20230;SDS011;10274;49.022;9.338;2023-11-18T05:41:20;1.23;;;1.13;;
20230;SDS011;10274;49.022;9.338;2023-11-18T05:43:53;1.23;;;1.13;;
20230;SDS011;10274;49.022;9.338;2023-11-18T05:46:22;3.23;;;2.37;;
20230;SDS011;10274;49.022;9.338;2023-11-18T05:48:52;1.93;;;1.83;;
20230;SDS011;10274;49.022;9.338;2023-11-18T05:51:20;2.37;;;1.50;;
20230;SDS011;10274;49.022;9.338;2023-11-18T05:53:47;1.50;;;1.40;;
20230;SDS011;10274;49.022;9.338;2023-11-18T05:56:15;1.60;;;1.50;;
20230;SDS011;10274;49.022;9.338;2023-11-18T05:58:42;1.53;;;1.43;;
20230;SDS011;10274;49.022;9.338;2023-11-18T06:01:09;1.40;;;1.30;;
20230;SDS011;10274;49.022;9.338;2023-11-18T06:03:37;2.17;;;1.70;;
20230;SDS011;10274;49.022;9.338;2023-11-18T06:06:06;1.77;;;1.13;;
20230;SDS011;10274;49.022;9.338;2023-11-18T06:08:34;1.63;;;1.50;;
20230;SDS011;10274;49.022;9.338;2023-11-18T06:11:02;1.27;;;1.17;;
20230;SDS011;10274;49.022;9.338;2023-11-18T06:13:37;1.97;;;1.47;;
20230;SDS011;10274;49.022;9.338;2023-11-18T06:16:07;1.50;;;1.40;;
20230;SDS011;10274;49.022;9.338;2023-11-18T06:18:34;1.17;;;1.00;;
20230;SDS011;10274;49.022;9.338;2023-11-18T06:21:02;1.67;;;1.50;;
20230;SDS011;10274;49.022;9.338;2023-11-18T06:23:30;1.23;;;1.13;;
20230;SDS011;10274;49.022;9.338;2023-11-18T06:25:58;1.20;;;1.10;;
20230;SDS011;10274;49.022;9.338;2023-11-18T06:28:25;1.30;;;1.20;;
20230;SDS011;10274;49.022;9.338;2023-11-18T06:30:52;1.77;;;1.40;;
20230;SDS011;10274;49.022;9.338;2023-11-18T06:33:19;1.50;;;1.40;;
20230;SDS011;10274;49.022;9.338;2023-11-18T06:35:47;1.33;;;1.23;;
20230;SDS011;10274;49.022;9.338;2023-11-18T06:38:14;1.37;;;1.23;;
20230;SDS011;10274;49.022;9.338;2023-11-18T06:40:45;1.57;;;1.00;;
20230;SDS011;10274;49.022;9.338;2023-11-18T06:43:12;1.20;;;1.10;;
20230;SDS011;10274;49.022;9.338;2023-11-18T06:45:42;1.30;;;1.20;;
20230;SDS011;10274;49.022;9.338;2023-11-18T06:48:09;1.37;;;1.27;;
20230;SDS011;10274;49.022;9.338;2023-11-18T06:50:35;1.77;;;1.67;;
20230;SDS011;10274;49.022;9.338;2023-11-18T06:53:04;2.13;;;1.93;;
20230;SDS011;10274;49.022;9.338;2023-11-18T06:55:33;1.57;;;1.37;;
20230;SDS011;10274;49.022;9.338;2023-11-18T06:58:02;1.93;;;1.43;;
20230;SDS011;10274;49.022;9.338;2023-11-18T07:00:29;1.70;;;1.60;;
20230;SDS011;10274;49.022;9.338;2023-11-18T07:02:55;2.00;;;1.90;;
20230;SDS011;10274;49.022;9.338;2023-11-18T07:05:22;1.90;;;1.67;;
20230;SDS011;10274;49.022;9.338;2023-11-18T07:07:49;2.37;;;2.07;;
20230;SDS011;10274;49.022;9.338;2023-11-18T07:10:16;3.47;;;2.57;;
20230;SDS011;10274;49.022;9.338;2023-11-18T07:12:45;3.83;;;2.83;;
20230;SDS011;10274;49.022;9.338;2023-11-18T07:15:14;2.60;;;1.70;;
20230;SDS011;10274;49.022;9.338;2023-11-18T07:17:42;2.33;;;1.97;;
20230;SDS011;10274;49.022;9.338;2023-11-18T07:20:09;2.03;;;1.70;;
20230;SDS011;10274;49.022;9.338;2023-11-18T07:22:38;1.80;;;1.40;;
20230;SDS011;10274;49.022;9.338;2023-11-18T07:25:06;1.53;;;1.33;;
20230;SDS011;10274;49.022;9.338;2023-11-18T07:27:34;1.27;;;1.17;;
20230;SDS011;10274;49.022;9.338;2023-11-18T07:30:01;1.43;;;1.33;;
20230;SDS011;10274;49.022;9.338;2023-11-18T07:32:32;2.53;;;1.53;;
20230;SDS011;10274;49.022;9.338;2023-11-18T07:34:59;1.67;;;1.30;;
20230;SDS011;10274;49.022;9.338;2023-11-18T07:37:26;2.00;;;1.27;;
20230;SDS011;10274;49.022;9.338;2023-11-18T07:39:57;0.70;;;0.70;;
20230;SDS011;10274;49.022;9.338;2023-11-18T07:42:25;1.13;;;1.03;;
20230;SDS011;10274;49.022;9.338;2023-11-18T07:44:52;0.83;;;0.83;;
20230;SDS011;10274;49.022;9.338;2023-11-18T07:47:19;1.00;;;0.90;;
20230;SDS011;10274;49.022;9.338;2023-11-18T07:49:47;0.60;;;0.60;;
20230;SDS011;10274;49.022;9.338;2023-11-18T07:52:14;1.20;;;1.10;;
20230;SDS011;10274;49.022;9.338;2023-11-18T07:54:42;0.70;;;0.70;;
20230;SDS011;10274;49.022;9.338;2023-11-18T07:57:08;0.90;;;0.90;;
20230;SDS011;10274;49.022;9.338;2023-11-18T07:59:36;0.80;;;0.80;;
20230;SDS011;10274;49.022;9.338;2023-11-18T08:02:03;0.83;;;0.77;;
20230;SDS011;10274;49.022;9.338;2023-11-18T08:04:34;0.90;;;0.77;;
20230;SDS011;10274;49.022;9.338;2023-11-18T08:07:02;1.40;;;0.70;;
20230;SDS011;10274;49.022;9.338;2023-11-18T08:09:30;0.67;;;0.63;;
20230;SDS011;10274;49.022;9.338;2023-11-18T08:11:57;0.57;;;0.57;;
20230;SDS011;10274;49.022;9.338;2023-11-18T08:14:24;0.80;;;0.70;;
20230;SDS011;10274;49.022;9.338;2023-11-18T08:16:51;1.53;;;0.87;;
20230;SDS011;10274;49.022;9.338;2023-11-18T08:19:20;0.80;;;0.80;;
20230;SDS011;10274;49.022;9.338;2023-11-18T08:21:48;0.87;;;0.87;;
20230;SDS011;10274;49.022;9.338;2023-11-18T08:24:16;1.33;;;1.23;;
20230;SDS011;10274;49.022;9.338;2023-11-18T08:26:42;0.97;;;0.97;;
20230;SDS011;10274;49.022;9.338;2023-11-18T08:29:09;1.00;;;1.00;;
20230;SDS011;10274;49.022;9.338;2023-11-18T08:31:38;0.53;;;0.53;;
20230;SDS011;10274;49.022;9.338;2023-11-18T08:34:04;0.90;;;0.90;;
20230;SDS011;10274;49.022;9.338;2023-11-18T08:36:31;1.60;;;1.20;;
20230;SDS011;10274;49.022;9.338;2023-11-18T08:38:59;0.90;;;0.70;;
20230;SDS011;10274;49.022;9.338;2023-11-18T08:41:27;0.90;;;0.80;;
20230;SDS011;10274;49.022;9.338;2023-11-18T08:43:56;1.00;;;0.87;;
20230;SDS011;10274;49.022;9.338;2023-11-18T08:46:22;1.53;;;1.10;;
20230;SDS011;10274;49.022;9.338;2023-11-18T08:48:50;0.80;;;0.80;;
20230;SDS011;10274;49.022;9.338;2023-11-18T08:51:16;0.90;;;0.80;;
20230;SDS011;10274;49.022;9.338;2023-11-18T08:53:43;1.40;;;1.27;;
20230;SDS011;10274;49.022;9.338;2023-11-18T08:56:10;0.80;;;0.80;;
20230;SDS011;10274;49.022;9.338;2023-11-18T08:58:41;0.47;;;0.47;;
20230;SDS011;10274;49.022;9.338;2023-11-18T09:01:09;1.17;;;1.00;;
20230;SDS011;10274;49.022;9.338;2023-11-18T09:03:39;0.67;;;0.67;;
20230;SDS011;10274;49.022;9.338;2023-11-18T09:06:13;1.13;;;1.10;;
20230;SDS011;10274;49.022;9.338;2023-11-18T09:08:44;0.80;;;0.80;;
20230;SDS011;10274;49.022;9.338;2023-11-18T09:11:17;0.93;;;0.90;;
20230;SDS011;10274;49.022;9.338;2023-11-18T09:13:48;1.07;;;1.00;;
20230;SDS011;10274;49.022;9.338;2023-11-18T09:16:18;0.70;;;0.67;;
20230;SDS011;10274;49.022;9.338;2023-11-18T09:18:47;0.80;;;0.80;;
20230;SDS011;10274;49.022;9.338;2023-11-18T09:21:15;1.00;;;0.90;;
20230;SDS011;10274;49.022;9.338;2023-11-18T09:23:48;1.43;;;1.10;;
20230;SDS011;10274;49.022;9.338;2023-11-18T09:26:14;0.93;;;0.87;;
20230;SDS011;10274;49.022;9.338;2023-11-18T09:28:41;1.23;;;0.90;;
20230;SDS011;10274;49.022;9.338;2023-11-18T09:31:10;1.13;;;0.83;;
20230;SDS011;10274;49.022;9.338;2023-11-18T09:33:38;0.87;;;0.83;;
20230;SDS011;10274;49.022;9.338;2023-11-18T09:36:10;1.27;;;0.60;;
20230;SDS011;10274;49.022;9.338;2023-11-18T09:38:38;0.97;;;0.50;;
20230;SDS011;10274;49.022;9.338;2023-11-18T09:41:06;0.53;;;0.53;;
20230;SDS011;10274;49.022;9.338;2023-11-18T09:43:36;0.90;;;0.70;;
20230;SDS011;10274;49.022;9.338;2023-11-18T09:46:07;0.60;;;0.60;;
20230;SDS011;10274;49.022;9.338;2023-11-18T09:48:39;0.60;;;0.60;;
20230;SDS011;10274;49.022;9.338;2023-11-18T09:51:12;0.60;;;0.50;;
20230;SDS011;10274;49.022;9.338;2023-11-18T09:53:41;0.73;;;0.70;;
20230;SDS011;10274;49.022;9.338;2023-11-18T09:56:13;0.40;;;0.40;;
20230;SDS011;10274;49.022;9.338;2023-11-18T09:58:54;0.53;;;0.40;;
20230;SDS011;10274;49.022;9.338;2023-11-18T10:01:30;0.50;;;0.50;;
20230;SDS011;10274;49.022;9.338;2023-11-18T10:04:05;0.30;;;0.30;;
20230;SDS011;10274;49.022;9.338;2023-11-18T10:06:33;0.57;;;0.57;;
20230;SDS011;10274;49.022;9.338;2023-11-18T10:09:01;1.10;;;0.93;;
20230;SDS011;10274;49.022;9.338;2023-11-18T10:11:40;0.47;;;0.40;;
20230;SDS011;10274;49.022;9.338;2023-11-18T10:14:07;0.97;;;0.90;;
20230;SDS011;10274;49.022;9.338;2023-11-18T10:16:35;0.50;;;0.50;;
20230;SDS011;10274;49.022;9.338;2023-11-18T10:19:04;0.60;;;0.60;;
20230;SDS011;10274;49.022;9.338;2023-11-18T10:21:34;0.80;;;0.60;;
20230;SDS011;10274;49.022;9.338;2023-11-18T10:24:04;0.60;;;0.60;;
20230;SDS011;10274;49.022;9.338;2023-11-18T10:26:39;0.67;;;0.50;;
20230;SDS011;10274;49.022;9.338;2023-11-18T10:29:10;0.47;;;0.47;;
20230;SDS011;10274;49.022;9.338;2023-11-18T10:31:38;0.40;;;0.40;;
20230;SDS011;10274;49.022;9.338;2023-11-18T10:34:11;0.40;;;0.40;;
20230;SDS011;10274;49.022;9.338;2023-11-18T10:36:40;0.37;;;0.33;;
20230;SDS011;10274;49.022;9.338;2023-11-18T10:39:10;0.63;;;0.60;;
20230;SDS011;10274;49.022;9.338;2023-11-18T10:41:41;0.63;;;0.63;;
20230;SDS011;10274;49.022;9.338;2023-11-18T10:44:09;0.67;;;0.60;;
20230;SDS011;10274;49.022;9.338;2023-11-18T10:46:40;0.50;;;0.50;;
20230;SDS011;10274;49.022;9.338;2023-11-18T10:49:07;0.77;;;0.57;;
20230;SDS011;10274;49.022;9.338;2023-11-18T10:51:36;0.60;;;0.60;;
20230;SDS011;10274;49.022;9.338;2023-11-18T10:54:04;0.33;;;0.33;;
20230;SDS011;10274;49.022;9.338;2023-11-18T10:56:40;1.17;;;0.90;;
20230;SDS011;10274;49.022;9.338;2023-11-18T10:59:15;0.40;;;0.40;;
20230;SDS011;10274;49.022;9.338;2023-11-18T11:01:43;0.90;;;0.80;;
20230;SDS011;10274;49.022;9.338;2023-11-18T11:04:14;0.57;;;0.50;;
20230;SDS011;10274;49.022;9.338;2023-11-18T11:06:43;0.50;;;0.50;;
20230;SDS011;10274;49.022;9.338;2023-11-18T11:09:17;1.50;;;0.80;;
20230;SDS011;10274;49.022;9.338;2023-11-18T11:11:46;0.50;;;0.50;;
20230;SDS011;10274;49.022;9.338;2023-11-18T11:14:16;0.60;;;0.60;;
20230;SDS011;10274;49.022;9.338;2023-11-18T11:16:45;0.40;;;0.40;;
20230;SDS011;10274;49.022;9.338;2023-11-18T11:19:20;0.73;;;0.73;;
20230;SDS011;10274;49.022;9.338;2023-11-18T11:22:03;1.17;;;0.57;;
20230;SDS011;10274;49.022;9.338;2023-11-18T11:24:41;0.60;;;0.60;;
20230;SDS011;10274;49.022;9.338;2023-11-18T11:27:22;1.60;;;0.40;;
20230;SDS011;10274;49.022;9.338;2023-11-18T11:30:01;0.80;;;0.50;;
20230;SDS011;10274;49.022;9.338;2023-11-18T11:32:38;1.13;;;0.80;;
20230;SDS011;10274;49.022;9.338;2023-11-18T11:35:15;0.80;;;0.73;;
20230;SDS011;10274;49.022;9.338;2023-11-18T11:37:48;0.60;;;0.60;;
20230;SDS011;10274;49.022;9.338;2023-11-18T11:40:16;0.50;;;0.50;;
20230;SDS011;10274;49.022;9.338;2023-11-18T11:42:47;0.87;;;0.87;;
20230;SDS011;10274;49.022;9.338;2023-11-18T11:45:20;0.40;;;0.40;;
20230;SDS011;10274;49.022;9.338;2023-11-18T11:47:53;0.43;;;0.43;;
20230;SDS011;10274;49.022;9.338;2023-11-18T11:50:43;0.40;;;0.40;;
20230;SDS011;10274;49.022;9.338;2023-11-18T11:53:21;1.60;;;0.67;;
20230;SDS011;10274;49.022;9.338;2023-11-18T11:55:52;0.50;;;0.50;;
20230;SDS011;10274;49.022;9.338;2023-11-18T11:58:30;0.30;;;0.30;;
20230;SDS011;10274;49.022;9.338;2023-11-18T12:00:58;0.73;;;0.73;;
20230;SDS011;10274;49.022;9.338;2023-11-18T12:03:32;0.73;;;0.50;;
20230;SDS011;10274;49.022;9.338;2023-11-18T12:06:05;0.27;;;0.23;;
20230;SDS011;10274;49.022;9.338;2023-11-18T12:08:36;0.30;;;0.30;;
20230;SDS011;10274;49.022;9.338;2023-11-18T12:11:05;0.27;;;0.27;;
20230;SDS011;10274;49.022;9.338;2023-11-18T12:13:34;0.20;;;0.20;;
20230;SDS011;10274;49.022;9.338;2023-11-18T12:18:32;0.30;;;0.30;;
20230;SDS011;10274;49.022;9.338;2023-11-18T12:21:02;0.40;;;0.40;;
20230;SDS011;10274;49.022;9.338;2023-11-18T12:23:29;0.50;;;0.50;;
20230;SDS011;10274;49.022;9.338;2023-11-18T12:26:00;0.97;;;0.90;;
20230;SDS011;10274;49.022;9.338;2023-11-18T12:28:28;0.53;;;0.47;;
20230;SDS011;10274;49.022;9.338;2023-11-18T12:30:59;0.20;;;0.20;;
20230;SDS011;10274;49.022;9.338;2023-11-18T12:36:37;0.20;;;0.20;;
20230;SDS011;10274;49.022;9.338;2023-11-18T12:42:47;0.37;;;0.37;;
20230;SDS011;10274;49.022;9.338;2023-11-18T12:45:42;0.43;;;0.43;;
20230;SDS011;10274;49.022;9.338;2023-11-18T12:48:31;0.37;;;0.23;;
20230;SDS011;10274;49.022;9.338;2023-11-18T12:51:01;0.40;;;0.40;;
20230;SDS011;10274;49.022;9.338;2023-11-18T12:53:35;0.43;;;0.37;;
20230;SDS011;10274;49.022;9.338;2023-11-18T12:56:02;0.53;;;0.40;;
20230;SDS011;10274;49.022;9.338;2023-11-18T12:58:31;0.80;;;0.50;;
20230;SDS011;10274;49.022;9.338;2023-11-18T13:00:58;0.30;;;0.30;;
20230;SDS011;10274;49.022;9.338;2023-11-18T13:03:27;0.20;;;0.20;;
20230;SDS011;10274;49.022;9.338;2023-11-18T13:05:54;0.20;;;0.20;;
20230;SDS011;10274;49.022;9.338;2023-11-18T13:08:21;0.70;;;0.30;;
20230;SDS011;10274;49.022;9.338;2023-11-18T13:10:49;0.27;;;0.20;;
20230;SDS011;10274;49.022;9.338;2023-11-18T13:13:17;0.47;;;0.20;;
20230;SDS011;10274;49.022;9.338;2023-11-18T13:15:46;0.40;;;0.40;;
20230;SDS011;10274;49.022;9.338;2023-11-18T13:18:15;0.20;;;0.20;;
20230;SDS011;10274;49.022;9.338;2023-11-18T13:20:47;0.20;;;0.20;;
20230;SDS011;10274;49.022;9.338;2023-11-18T13:23:20;0.23;;;0.23;;
20230;SDS011;10274;49.022;9.338;2023-11-18T13:25:47;0.43;;;0.43;;
20230;SDS011;10274;49.022;9.338;2023-11-18T13:28:14;0.93;;;0.53;;
20230;SDS011;10274;49.022;9.338;2023-11-18T13:30:41;0.40;;;0.40;;
20230;SDS011;10274;49.022;9.338;2023-11-18T13:33:12;0.37;;;0.37;;
20230;SDS011;10274;49.022;9.338;2023-11-18T13:35:39;0.30;;;0.30;;
20230;SDS011;10274;49.022;9.338;2023-11-18T13:38:08;0.20;;;0.20;;
20230;SDS011;10274;49.022;9.338;2023-11-18T13:40:43;0.23;;;0.23;;
20230;SDS011;10274;49.022;9.338;2023-11-18T13:43:10;0.20;;;0.20;;
20230;SDS011;10274;49.022;9.338;2023-11-18T13:45:36;0.20;;;0.20;;
20230;SDS011;10274;49.022;9.338;2023-11-18T13:48:04;0.30;;;0.30;;
20230;SDS011;10274;49.022;9.338;2023-11-18T13:50:35;0.37;;;0.30;;
20230;SDS011;10274;49.022;9.338;2023-11-18T13:53:02;0.10;;;0.10;;
20230;SDS011;10274;49.022;9.338;2023-11-18T13:55:29;0.37;;;0.30;;
20230;SDS011;10274;49.022;9.338;2023-11-18T13:57:57;0.40;;;0.40;;
20230;SDS011;10274;49.022;9.338;2023-11-18T14:00:24;0.53;;;0.53;;
20230;SDS011;10274;49.022;9.338;2023-11-18T14:02:53;0.40;;;0.40;;
20230;SDS011;10274;49.022;9.338;2023-11-18T14:05:21;0.40;;;0.40;;
20230;SDS011;10274;49.022;9.338;2023-11-18T14:07:51;1.23;;;0.20;;
20230;SDS011;10274;49.022;9.338;2023-11-18T14:10:20;0.20;;;0.20;;
20230;SDS011;10274;49.022;9.338;2023-11-18T14:13:02;0.40;;;0.40;;
20230;SDS011;10274;49.022;9.338;2023-11-18T14:15:30;0.30;;;0.30;;
20230;SDS011;10274;49.022;9.338;2023-11-18T14:18:00;0.30;;;0.30;;
20230;SDS011;10274;49.022;9.338;2023-11-18T14:20:27;0.43;;;0.37;;
20230;SDS011;10274;49.022;9.338;2023-11-18T14:22:57;0.30;;;0.30;;
20230;SDS011;10274;49.022;9.338;2023-11-18T14:25:24;0.30;;;0.30;;
20230;SDS011;10274;49.022;9.338;2023-11-18T14:27:52;0.50;;;0.50;;
20230;SDS011;10274;49.022;9.338;2023-11-18T14:30:19;0.23;;;0.23;;
20230;SDS011;10274;49.022;9.338;2023-11-18T14:32:49;0.57;;;0.43;;
20230;SDS011;10274;49.022;9.338;2023-11-18T14:35:16;0.20;;;0.20;;
20230;SDS011;10274;49.022;9.338;2023-11-18T14:37:42;0.33;;;0.33;;
20230;SDS011;10274;49.022;9.338;2023-11-18T14:40:11;0.30;;;0.30;;
20230;SDS011;10274;49.022;9.338;2023-11-18T14:42:40;0.60;;;0.40;;
20230;SDS011;10274;49.022;9.338;2023-11-18T14:45:09;1.00;;;0.90;;
20230;SDS011;10274;49.022;9.338;2023-11-18T14:47:37;0.60;;;0.60;;
20230;SDS011;10274;49.022;9.338;2023-11-18T14:50:04;0.30;;;0.30;;
20230;SDS011;10274;49.022;9.338;2023-11-18T14:52:40;0.30;;;0.30;;
20230;SDS011;10274;49.022;9.338;2023-11-18T14:55:07;0.73;;;0.73;;
20230;SDS011;10274;49.022;9.338;2023-11-18T14:57:38;1.10;;;0.77;;
20230;SDS011;10274;49.022;9.338;2023-11-18T15:00:06;0.40;;;0.40;;
20230;SDS011;10274;49.022;9.338;2023-11-18T15:02:44;0.67;;;0.50;;
20230;SDS011;10274;49.022;9.338;2023-11-18T15:05:12;0.23;;;0.23;;
20230;SDS011;10274;49.022;9.338;2023-11-18T15:07:43;0.47;;;0.37;;
20230;SDS011;10274;49.022;9.338;2023-11-18T15:10:10;0.63;;;0.47;;